sensor_id;sensor_type;location;lat;lon;timestamp;pressure;altitude;pressure_sealevel;temperature;humidity
62948;BME280;51940;52.126;-0.994;2022-11-14T00:00:47;100289.15;;;8.53;100.00
62948;BME280;51940;52.126;-0.994;2022-11-14T00:03:13;100284.02;;;8.52;100.00
62948;BME280;51940;52.126;-0.994;2022-11-14T00:05:41;100277.83;;;8.51;100.00
62948;BME280;51940;52.126;-0.994;2022-11-14T00:08:13;100278.05;;;8.48;100.00
62948;BME280;51940;52.126;-0.994;2022-11-14T00:10:39;100270.80;;;8.45;100.00
62948;BME280;51940;52.126;-0.994;2022-11-14T00:13:04;100267.66;;;8.42;100.00
62948;BME280;51940;52.126;-0.994;2022-11-14T00:15:30;100266.44;;;8.41;100.00
62948;BME280;51940;52.126;-0.994;2022-11-14T00:17:55;100262.71;;;8.41;100.00
62948;BME280;51940;52.126;-0.994;2022-11-14T00:20:21;100259.00;;;8.40;100.00
62948;BME280;51940;52.126;-0.994;2022-11-14T00:22:46;100254.23;;;8.37;100.00
62948;BME280;51940;52.126;-0.994;2022-11-14T00:25:11;100248.73;;;8.36;100.00
62948;BME280;51940;52.126;-0.994;2022-11-14T00:27:37;100245.39;;;8.33;100.00
62948;BME280;51940;52.126;-0.994;2022-11-14T00:30:02;100244.05;;;8.29;100.00
62948;BME280;51940;52.126;-0.994;2022-11-14T00:32:29;100243.73;;;8.26;100.00
62948;BME280;51940;52.126;-0.994;2022-11-14T00:34:55;100239.67;;;8.25;100.00
62948;BME280;51940;52.126;-0.994;2022-11-14T00:37:20;100240.71;;;8.26;100.00
62948;BME280;51940;52.126;-0.994;2022-11-14T00:39:45;100235.88;;;8.28;100.00
62948;BME280;51940;52.126;-0.994;2022-11-14T00:42:11;100231.98;;;8.27;100.00
62948;BME280;51940;52.126;-0.994;2022-11-14T00:44:37;100226.66;;;8.27;100.00
62948;BME280;51940;52.126;-0.994;2022-11-14T00:47:03;100224.52;;;8.27;100.00
62948;BME280;51940;52.126;-0.994;2022-11-14T00:49:28;100225.03;;;8.28;100.00
62948;BME280;51940;52.126;-0.994;2022-11-14T00:51:54;100225.03;;;8.28;100.00
62948;BME280;51940;52.126;-0.994;2022-11-14T00:54:19;100231.60;;;8.30;100.00
62948;BME280;51940;52.126;-0.994;2022-11-14T00:56:45;100229.28;;;8.30;100.00
62948;BME280;51940;52.126;-0.994;2022-11-14T00:59:10;100229.83;;;8.29;100.00
62948;BME280;51940;52.126;-0.994;2022-11-14T01:01:36;100227.80;;;8.23;100.00
62948;BME280;51940;52.126;-0.994;2022-11-14T01:04:01;100230.04;;;8.16;100.00
62948;BME280;51940;52.126;-0.994;2022-11-14T01:06:27;100230.61;;;8.14;100.00
62948;BME280;51940;52.126;-0.994;2022-11-14T01:08:52;100226.02;;;8.13;100.00
62948;BME280;51940;52.126;-0.994;2022-11-14T01:11:20;100222.27;;;8.14;100.00
62948;BME280;51940;52.126;-0.994;2022-11-14T01:13:46;100219.02;;;8.17;100.00
62948;BME280;51940;52.126;-0.994;2022-11-14T01:16:12;100217.56;;;8.18;100.00
62948;BME280;51940;52.126;-0.994;2022-11-14T01:18:39;100213.10;;;8.20;100.00
62948;BME280;51940;52.126;-0.994;2022-11-14T01:21:07;100213.28;;;8.21;100.00
62948;BME280;51940;52.126;-0.994;2022-11-14T01:23:33;100213.52;;;8.17;100.00
62948;BME280;51940;52.126;-0.994;2022-11-14T01:26:04;100212.53;;;8.12;100.00
62948;BME280;51940;52.126;-0.994;2022-11-14T01:28:30;100209.54;;;8.10;100.00
62948;BME280;51940;52.126;-0.994;2022-11-14T01:30:55;100205.08;;;8.11;100.00
62948;BME280;51940;52.126;-0.994;2022-11-14T01:33:21;100198.35;;;8.10;100.00
62948;BME280;51940;52.126;-0.994;2022-11-14T01:35:46;100195.14;;;8.11;100.00
62948;BME280;51940;52.126;-0.994;2022-11-14T01:38:13;100189.11;;;8.10;100.00
62948;BME280;51940;52.126;-0.994;2022-11-14T01:40:43;100189.80;;;8.10;100.00
62948;BME280;51940;52.126;-0.994;2022-11-14T01:46:00;100184.85;;;8.09;100.00
62948;BME280;51940;52.126;-0.994;2022-11-14T01:51:18;100179.73;;;8.09;100.00
62948;BME280;51940;52.126;-0.994;2022-11-14T01:53:48;100184.15;;;8.10;100.00
62948;BME280;51940;52.126;-0.994;2022-11-14T01:56:18;100184.85;;;8.10;100.00
62948;BME280;51940;52.126;-0.994;2022-11-14T01:59:03;100180.61;;;8.09;100.00
62948;BME280;51940;52.126;-0.994;2022-11-14T02:01:31;100177.95;;;8.08;100.00
62948;BME280;51940;52.126;-0.994;2022-11-14T02:03:59;100175.09;;;8.10;100.00
62948;BME280;51940;52.126;-0.994;2022-11-14T02:06:28;100170.45;;;8.11;100.00
62948;BME280;51940;52.126;-0.994;2022-11-14T02:08:55;100166.53;;;8.11;100.00
62948;BME280;51940;52.126;-0.994;2022-11-14T02:11:22;100161.91;;;8.11;100.00
62948;BME280;51940;52.126;-0.994;2022-11-14T02:13:48;100164.56;;;8.13;100.00
62948;BME280;51940;52.126;-0.994;2022-11-14T02:16:14;100160.83;;;8.14;100.00
62948;BME280;51940;52.126;-0.994;2022-11-14T02:18:40;100159.54;;;8.15;100.00
62948;BME280;51940;52.126;-0.994;2022-11-14T02:21:05;100156.33;;;8.16;100.00
62948;BME280;51940;52.126;-0.994;2022-11-14T02:23:31;100154.17;;;8.17;100.00
62948;BME280;51940;52.126;-0.994;2022-11-14T02:25:57;100152.54;;;8.19;100.00
62948;BME280;51940;52.126;-0.994;2022-11-14T02:28:24;100148.26;;;8.19;100.00
62948;BME280;51940;52.126;-0.994;2022-11-14T02:30:50;100143.30;;;8.18;100.00
62948;BME280;51940;52.126;-0.994;2022-11-14T02:33:15;100142.05;;;8.18;100.00
62948;BME280;51940;52.126;-0.994;2022-11-14T02:35:41;100143.48;;;8.18;100.00
62948;BME280;51940;52.126;-0.994;2022-11-14T02:38:07;100140.11;;;8.18;100.00
62948;BME280;51940;52.126;-0.994;2022-11-14T02:40:33;100133.52;;;8.19;100.00
62948;BME280;51940;52.126;-0.994;2022-11-14T02:42:58;100130.48;;;8.20;100.00
62948;BME280;51940;52.126;-0.994;2022-11-14T02:45:24;100131.17;;;8.22;100.00
62948;BME280;51940;52.126;-0.994;2022-11-14T02:47:50;100131.35;;;8.22;100.00
62948;BME280;51940;52.126;-0.994;2022-11-14T02:50:16;100122.30;;;8.21;100.00
62948;BME280;51940;52.126;-0.994;2022-11-14T02:52:42;100118.77;;;8.21;100.00
62948;BME280;51940;52.126;-0.994;2022-11-14T02:55:07;100105.09;;;8.21;100.00
62948;BME280;51940;52.126;-0.994;2022-11-14T02:57:33;100102.77;;;8.21;100.00
62948;BME280;51940;52.126;-0.994;2022-11-14T02:59:59;100092.13;;;8.19;100.00
62948;BME280;51940;52.126;-0.994;2022-11-14T03:02:24;100092.91;;;8.16;100.00
62948;BME280;51940;52.126;-0.994;2022-11-14T03:04:50;100094.93;;;8.13;100.00
62948;BME280;51940;52.126;-0.994;2022-11-14T03:07:15;100099.55;;;8.12;100.00
62948;BME280;51940;52.126;-0.994;2022-11-14T03:09:41;100100.64;;;8.11;100.00
62948;BME280;51940;52.126;-0.994;2022-11-14T03:12:06;100094.98;;;8.09;100.00
62948;BME280;51940;52.126;-0.994;2022-11-14T03:14:32;100091.48;;;8.07;100.00
62948;BME280;51940;52.126;-0.994;2022-11-14T03:16:57;100093.16;;;8.03;100.00
62948;BME280;51940;52.126;-0.994;2022-11-14T03:19:23;100095.28;;;8.03;100.00
62948;BME280;51940;52.126;-0.994;2022-11-14T03:21:48;100093.34;;;8.02;100.00
62948;BME280;51940;52.126;-0.994;2022-11-14T03:24:14;100093.70;;;8.02;100.00
62948;BME280;51940;52.126;-0.994;2022-11-14T03:26:39;100097.26;;;8.02;100.00
62948;BME280;51940;52.126;-0.994;2022-11-14T03:29:07;100107.58;;;8.01;100.00
62948;BME280;51940;52.126;-0.994;2022-11-14T03:31:32;100110.99;;;7.99;100.00
62948;BME280;51940;52.126;-0.994;2022-11-14T03:33:58;100110.85;;;7.98;100.00
62948;BME280;51940;52.126;-0.994;2022-11-14T03:36:23;100109.59;;;7.98;100.00
62948;BME280;51940;52.126;-0.994;2022-11-14T03:38:49;100107.09;;;7.99;100.00
62948;BME280;51940;52.126;-0.994;2022-11-14T03:41:14;100105.66;;;7.99;100.00
62948;BME280;51940;52.126;-0.994;2022-11-14T03:43:39;100105.31;;;7.99;100.00
62948;BME280;51940;52.126;-0.994;2022-11-14T03:46:05;100099.29;;;7.98;100.00
62948;BME280;51940;52.126;-0.994;2022-11-14T03:48:30;100097.55;;;7.97;100.00
62948;BME280;51940;52.126;-0.994;2022-11-14T03:50:56;100094.90;;;7.96;100.00
62948;BME280;51940;52.126;-0.994;2022-11-14T03:53:22;100090.27;;;7.96;100.00
62948;BME280;51940;52.126;-0.994;2022-11-14T03:55:50;100089.38;;;7.97;100.00
62948;BME280;51940;52.126;-0.994;2022-11-14T03:58:15;100089.93;;;7.96;100.00
62948;BME280;51940;52.126;-0.994;2022-11-14T04:00:41;100089.38;;;7.97;100.00
62948;BME280;51940;52.126;-0.994;2022-11-14T04:03:06;100090.26;;;7.97;100.00
62948;BME280;51940;52.126;-0.994;2022-11-14T04:05:33;100088.31;;;7.97;100.00
62948;BME280;51940;52.126;-0.994;2022-11-14T04:07:59;100079.79;;;7.97;100.00
62948;BME280;51940;52.126;-0.994;2022-11-14T04:10:24;100077.84;;;7.96;100.00
62948;BME280;51940;52.126;-0.994;2022-11-14T04:12:51;100090.80;;;7.97;100.00
62948;BME280;51940;52.126;-0.994;2022-11-14T04:15:18;100106.61;;;7.96;100.00
62948;BME280;51940;52.126;-0.994;2022-11-14T04:17:45;100105.71;;;7.97;100.00
62948;BME280;51940;52.126;-0.994;2022-11-14T04:20:12;100098.42;;;7.97;100.00
62948;BME280;51940;52.126;-0.994;2022-11-14T04:22:38;100091.54;;;7.94;100.00
62948;BME280;51940;52.126;-0.994;2022-11-14T04:25:07;100087.45;;;7.94;100.00
62948;BME280;51940;52.126;-0.994;2022-11-14T04:27:34;100080.35;;;7.95;100.00
62948;BME280;51940;52.126;-0.994;2022-11-14T04:30:00;100087.43;;;7.97;100.00
62948;BME280;51940;52.126;-0.994;2022-11-14T04:32:25;100091.27;;;7.99;100.00
62948;BME280;51940;52.126;-0.994;2022-11-14T04:34:51;100078.42;;;8.02;100.00
62948;BME280;51940;52.126;-0.994;2022-11-14T04:37:16;100073.61;;;8.04;100.00
62948;BME280;51940;52.126;-0.994;2022-11-14T04:39:41;100074.10;;;8.06;100.00
62948;BME280;51940;52.126;-0.994;2022-11-14T04:42:07;100072.30;;;8.07;100.00
62948;BME280;51940;52.126;-0.994;2022-11-14T04:44:32;100068.71;;;8.09;100.00
62948;BME280;51940;52.126;-0.994;2022-11-14T04:46:58;100062.82;;;8.10;100.00
62948;BME280;51940;52.126;-0.994;2022-11-14T04:49:24;100058.20;;;8.10;100.00
62948;BME280;51940;52.126;-0.994;2022-11-14T04:51:50;100050.90;;;8.11;100.00
62948;BME280;51940;52.126;-0.994;2022-11-14T04:54:15;100042.91;;;8.11;100.00
62948;BME280;51940;52.126;-0.994;2022-11-14T04:56:41;100033.34;;;8.10;100.00
62948;BME280;51940;52.126;-0.994;2022-11-14T04:59:06;100029.77;;;8.10;100.00
62948;BME280;51940;52.126;-0.994;2022-11-14T05:01:32;100029.41;;;8.11;100.00
62948;BME280;51940;52.126;-0.994;2022-11-14T05:03:57;100028.73;;;8.09;100.00
62948;BME280;51940;52.126;-0.994;2022-11-14T05:06:23;100024.11;;;8.09;100.00
62948;BME280;51940;52.126;-0.994;2022-11-14T05:08:48;100028.33;;;8.11;100.00
62948;BME280;51940;52.126;-0.994;2022-11-14T05:11:14;100029.58;;;8.13;100.00
62948;BME280;51940;52.126;-0.994;2022-11-14T05:13:41;100027.23;;;8.14;100.00
62948;BME280;51940;52.126;-0.994;2022-11-14T05:16:06;100030.60;;;8.14;100.00
62948;BME280;51940;52.126;-0.994;2022-11-14T05:18:32;100039.69;;;8.13;100.00
62948;BME280;51940;52.126;-0.994;2022-11-14T05:20:59;100039.00;;;8.12;100.00
62948;BME280;51940;52.126;-0.994;2022-11-14T05:23:25;100037.77;;;8.10;100.00
62948;BME280;51940;52.126;-0.994;2022-11-14T05:26:17;100039.21;;;8.09;100.00
62948;BME280;51940;52.126;-0.994;2022-11-14T05:28:43;100037.98;;;8.09;100.00
62948;BME280;51940;52.126;-0.994;2022-11-14T05:31:13;100036.42;;;8.07;100.00
62948;BME280;51940;52.126;-0.994;2022-11-14T05:33:42;100027.89;;;8.07;100.00
62948;BME280;51940;52.126;-0.994;2022-11-14T05:36:13;100019.72;;;8.07;100.00
62948;BME280;51940;52.126;-0.994;2022-11-14T05:38:39;100013.91;;;8.05;100.00
62948;BME280;51940;52.126;-0.994;2022-11-14T05:41:10;100014.16;;;8.01;100.00
62948;BME280;51940;52.126;-0.994;2022-11-14T05:43:35;100016.94;;;7.96;100.00
62948;BME280;51940;52.126;-0.994;2022-11-14T05:46:03;100015.19;;;7.94;100.00
62948;BME280;51940;52.126;-0.994;2022-11-14T05:48:29;100006.92;;;7.90;100.00
62948;BME280;51940;52.126;-0.994;2022-11-14T05:50:57;100004.88;;;7.85;100.00
62948;BME280;51940;52.126;-0.994;2022-11-14T05:53:22;100011.82;;;7.84;100.00
62948;BME280;51940;52.126;-0.994;2022-11-14T05:55:48;100005.15;;;7.81;100.00
62948;BME280;51940;52.126;-0.994;2022-11-14T05:58:14;100010.86;;;7.79;100.00
62948;BME280;51940;52.126;-0.994;2022-11-14T06:00:39;100012.30;;;7.79;100.00
62948;BME280;51940;52.126;-0.994;2022-11-14T06:03:04;100014.27;;;7.78;100.00
62948;BME280;51940;52.126;-0.994;2022-11-14T06:05:30;100012.48;;;7.78;100.00
62948;BME280;51940;52.126;-0.994;2022-11-14T06:07:57;100007.65;;;7.80;100.00
62948;BME280;51940;52.126;-0.994;2022-11-14T06:10:23;100008.34;;;7.81;100.00
62948;BME280;51940;52.126;-0.994;2022-11-14T06:12:49;100009.89;;;7.83;100.00
62948;BME280;51940;52.126;-0.994;2022-11-14T06:15:14;100010.73;;;7.86;100.00
62948;BME280;51940;52.126;-0.994;2022-11-14T06:17:40;100009.63;;;7.88;100.00
62948;BME280;51940;52.126;-0.994;2022-11-14T06:20:06;100010.98;;;7.91;100.00
62948;BME280;51940;52.126;-0.994;2022-11-14T06:22:32;100008.99;;;7.92;100.00
62948;BME280;51940;52.126;-0.994;2022-11-14T06:24:59;100016.79;;;7.93;100.00
62948;BME280;51940;52.126;-0.994;2022-11-14T06:27:24;100016.97;;;7.93;100.00
62948;BME280;51940;52.126;-0.994;2022-11-14T06:29:51;100014.82;;;7.94;100.00
62948;BME280;51940;52.126;-0.994;2022-11-14T06:32:16;100018.23;;;7.92;100.00
62948;BME280;51940;52.126;-0.994;2022-11-14T06:34:42;100018.06;;;7.92;100.00
62948;BME280;51940;52.126;-0.994;2022-11-14T06:37:07;100017.16;;;7.92;100.00
62948;BME280;51940;52.126;-0.994;2022-11-14T06:39:33;100020.00;;;7.92;100.00
62948;BME280;51940;52.126;-0.994;2022-11-14T06:41:58;100021.58;;;7.93;100.00
62948;BME280;51940;52.126;-0.994;2022-11-14T06:44:23;100019.84;;;7.92;100.00
62948;BME280;51940;52.126;-0.994;2022-11-14T06:46:49;100013.98;;;7.92;100.00
62948;BME280;51940;52.126;-0.994;2022-11-14T06:49:14;100008.88;;;7.90;100.00
62948;BME280;51940;52.126;-0.994;2022-11-14T06:51:40;100012.06;;;7.90;100.00
62948;BME280;51940;52.126;-0.994;2022-11-14T06:54:05;100010.78;;;7.92;100.00
62948;BME280;51940;52.126;-0.994;2022-11-14T06:56:30;100002.77;;;7.92;100.00
62948;BME280;51940;52.126;-0.994;2022-11-14T06:58:56;100000.16;;;7.90;100.00
62948;BME280;51940;52.126;-0.994;2022-11-14T07:01:23;99999.70;;;7.87;100.00
62948;BME280;51940;52.126;-0.994;2022-11-14T07:03:52;99989.98;;;7.84;100.00
62948;BME280;51940;52.126;-0.994;2022-11-14T07:06:21;99979.21;;;7.81;100.00
62948;BME280;51940;52.126;-0.994;2022-11-14T07:08:47;99974.50;;;7.78;100.00
62948;BME280;51940;52.126;-0.994;2022-11-14T07:11:15;99973.59;;;7.78;100.00
62948;BME280;51940;52.126;-0.994;2022-11-14T07:14:00;99977.34;;;7.77;100.00
62948;BME280;51940;52.126;-0.994;2022-11-14T07:16:27;99978.23;;;7.76;100.00
62948;BME280;51940;52.126;-0.994;2022-11-14T07:18:58;99984.12;;;7.75;100.00
62948;BME280;51940;52.126;-0.994;2022-11-14T07:21:27;99988.58;;;7.74;100.00
62948;BME280;51940;52.126;-0.994;2022-11-14T07:23:53;99996.17;;;7.76;100.00
62948;BME280;51940;52.126;-0.994;2022-11-14T07:26:18;100004.67;;;7.77;100.00
62948;BME280;51940;52.126;-0.994;2022-11-14T07:28:44;100002.36;;;7.78;100.00
62948;BME280;51940;52.126;-0.994;2022-11-14T07:31:15;100004.13;;;7.79;100.00
62948;BME280;51940;52.126;-0.994;2022-11-14T07:33:42;100003.54;;;7.81;100.00
62948;BME280;51940;52.126;-0.994;2022-11-14T07:36:09;99998.35;;;7.83;100.00
62948;BME280;51940;52.126;-0.994;2022-11-14T07:38:36;99987.52;;;7.83;100.00
62948;BME280;51940;52.126;-0.994;2022-11-14T07:41:05;99990.14;;;7.86;100.00
62948;BME280;51940;52.126;-0.994;2022-11-14T07:43:31;99989.36;;;7.89;100.00
62948;BME280;51940;52.126;-0.994;2022-11-14T07:46:10;99984.52;;;7.91;100.00
62948;BME280;51940;52.126;-0.994;2022-11-14T07:48:36;99978.05;;;7.96;100.00
62948;BME280;51940;52.126;-0.994;2022-11-14T07:51:04;99973.57;;;7.98;100.00
62948;BME280;51940;52.126;-0.994;2022-11-14T07:53:30;99969.33;;;7.97;100.00
62948;BME280;51940;52.126;-0.994;2022-11-14T07:56:01;99971.84;;;7.96;100.00
62948;BME280;51940;52.126;-0.994;2022-11-14T07:58:27;99974.63;;;7.98;100.00
62948;BME280;51940;52.126;-0.994;2022-11-14T08:00:52;99969.45;;;8.00;100.00
62948;BME280;51940;52.126;-0.994;2022-11-14T08:03:17;99973.63;;;8.03;100.00
62948;BME280;51940;52.126;-0.994;2022-11-14T08:05:45;99970.75;;;8.05;100.00
62948;BME280;51940;52.126;-0.994;2022-11-14T08:08:11;99971.77;;;8.08;100.00
62948;BME280;51940;52.126;-0.994;2022-11-14T08:10:38;99967.07;;;8.11;100.00
62948;BME280;51940;52.126;-0.994;2022-11-14T08:13:05;99966.32;;;8.13;100.00
62948;BME280;51940;52.126;-0.994;2022-11-14T08:15:32;99967.84;;;8.16;100.00
62948;BME280;51940;52.126;-0.994;2022-11-14T08:17:59;99976.11;;;8.20;100.00
62948;BME280;51940;52.126;-0.994;2022-11-14T08:20:25;99977.63;;;8.24;100.00
62948;BME280;51940;52.126;-0.994;2022-11-14T08:23:01;99976.66;;;8.27;100.00
62948;BME280;51940;52.126;-0.994;2022-11-14T08:25:27;99974.80;;;8.32;100.00
62948;BME280;51940;52.126;-0.994;2022-11-14T08:27:54;99976.16;;;8.36;100.00
62948;BME280;51940;52.126;-0.994;2022-11-14T08:30:19;99973.96;;;8.39;100.00
62948;BME280;51940;52.126;-0.994;2022-11-14T08:32:45;99970.65;;;8.43;100.00
62948;BME280;51940;52.126;-0.994;2022-11-14T08:35:10;99971.08;;;8.49;100.00
62948;BME280;51940;52.126;-0.994;2022-11-14T08:37:37;99959.41;;;8.54;100.00
62948;BME280;51940;52.126;-0.994;2022-11-14T08:40:04;99960.88;;;8.60;100.00
62948;BME280;51940;52.126;-0.994;2022-11-14T08:42:30;99957.77;;;8.64;100.00
62948;BME280;51940;52.126;-0.994;2022-11-14T08:44:55;99959.09;;;8.68;100.00
62948;BME280;51940;52.126;-0.994;2022-11-14T08:47:21;99962.73;;;8.72;100.00
62948;BME280;51940;52.126;-0.994;2022-11-14T08:49:48;99952.64;;;8.77;100.00
62948;BME280;51940;52.126;-0.994;2022-11-14T08:52:14;99958.45;;;8.80;100.00
62948;BME280;51940;52.126;-0.994;2022-11-14T08:54:39;99960.14;;;8.84;100.00
62948;BME280;51940;52.126;-0.994;2022-11-14T08:57:05;99958.42;;;8.88;100.00
62948;BME280;51940;52.126;-0.994;2022-11-14T08:59:31;99956.05;;;8.91;100.00
62948;BME280;51940;52.126;-0.994;2022-11-14T09:01:56;99947.44;;;8.94;100.00
62948;BME280;51940;52.126;-0.994;2022-11-14T09:04:22;99946.44;;;8.99;100.00
62948;BME280;51940;52.126;-0.994;2022-11-14T09:06:47;99952.33;;;9.05;100.00
62948;BME280;51940;52.126;-0.994;2022-11-14T09:09:13;99950.38;;;9.12;100.00
62948;BME280;51940;52.126;-0.994;2022-11-14T09:11:39;99951.31;;;9.18;100.00
62948;BME280;51940;52.126;-0.994;2022-11-14T09:14:05;99944.53;;;9.25;100.00
62948;BME280;51940;52.126;-0.994;2022-11-14T09:16:30;99944.62;;;9.28;100.00
62948;BME280;51940;52.126;-0.994;2022-11-14T09:18:55;99942.98;;;9.29;100.00
62948;BME280;51940;52.126;-0.994;2022-11-14T09:21:21;99938.48;;;9.31;100.00
62948;BME280;51940;52.126;-0.994;2022-11-14T09:23:47;99938.42;;;9.34;100.00
62948;BME280;51940;52.126;-0.994;2022-11-14T09:26:12;99935.99;;;9.38;100.00
62948;BME280;51940;52.126;-0.994;2022-11-14T09:28:38;99924.86;;;9.42;100.00
62948;BME280;51940;52.126;-0.994;2022-11-14T09:31:06;99917.22;;;9.47;100.00
62948;BME280;51940;52.126;-0.994;2022-11-14T09:33:32;99911.21;;;9.52;100.00
62948;BME280;51940;52.126;-0.994;2022-11-14T09:36:00;99914.61;;;9.58;100.00
62948;BME280;51940;52.126;-0.994;2022-11-14T09:38:26;99912.64;;;9.65;100.00
62948;BME280;51940;52.126;-0.994;2022-11-14T09:43:52;99910.88;;;9.71;100.00
62948;BME280;51940;52.126;-0.994;2022-11-14T09:46:31;99911.49;;;9.74;100.00
62948;BME280;51940;52.126;-0.994;2022-11-14T09:48:58;99905.12;;;9.79;100.00
62948;BME280;51940;52.126;-0.994;2022-11-14T09:51:29;99899.52;;;9.82;100.00
62948;BME280;51940;52.126;-0.994;2022-11-14T09:54:04;99896.48;;;9.83;100.00
62948;BME280;51940;52.126;-0.994;2022-11-14T09:56:33;99896.24;;;9.85;100.00
62948;BME280;51940;52.126;-0.994;2022-11-14T09:58:59;99891.09;;;9.90;100.00
62948;BME280;51940;52.126;-0.994;2022-11-14T10:06:52;99894.30;;;10.08;100.00
62948;BME280;51940;52.126;-0.994;2022-11-14T10:15:13;99892.02;;;10.19;100.00
62948;BME280;51940;52.126;-0.994;2022-11-14T10:39:25;99886.96;;;10.21;100.00
62948;BME280;51940;52.126;-0.994;2022-11-14T10:41:58;99884.55;;;10.25;100.00
62948;BME280;51940;52.126;-0.994;2022-11-14T10:44:31;99879.60;;;10.29;100.00
62948;BME280;51940;52.126;-0.994;2022-11-14T10:47:02;99870.92;;;10.33;100.00
62948;BME280;51940;52.126;-0.994;2022-11-14T10:49:32;99869.06;;;10.36;100.00
62948;BME280;51940;52.126;-0.994;2022-11-14T10:52:08;99864.70;;;10.38;100.00
62948;BME280;51940;52.126;-0.994;2022-11-14T10:54:50;99863.67;;;10.43;100.00
62948;BME280;51940;52.126;-0.994;2022-11-14T10:57:20;99867.69;;;10.45;100.00
62948;BME280;51940;52.126;-0.994;2022-11-14T10:59:46;99865.80;;;10.48;100.00
62948;BME280;51940;52.126;-0.994;2022-11-14T11:02:13;99867.00;;;10.50;100.00
62948;BME280;51940;52.126;-0.994;2022-11-14T11:04:43;99858.73;;;10.52;100.00
62948;BME280;51940;52.126;-0.994;2022-11-14T11:09:59;99852.87;;;10.62;100.00
62948;BME280;51940;52.126;-0.994;2022-11-14T11:12:47;99841.44;;;10.68;100.00
62948;BME280;51940;52.126;-0.994;2022-11-14T11:15:24;99838.34;;;10.75;100.00
62948;BME280;51940;52.126;-0.994;2022-11-14T11:18:24;99836.75;;;10.80;100.00
62948;BME280;51940;52.126;-0.994;2022-11-14T11:21:09;99831.66;;;10.83;100.00
62948;BME280;51940;52.126;-0.994;2022-11-14T11:23:49;99825.69;;;10.85;100.00
62948;BME280;51940;52.126;-0.994;2022-11-14T11:29:04;99824.91;;;10.92;100.00
62948;BME280;51940;52.126;-0.994;2022-11-14T11:31:53;99819.27;;;10.96;100.00
62948;BME280;51940;52.126;-0.994;2022-11-14T11:34:37;99824.80;;;11.00;100.00
62948;BME280;51940;52.126;-0.994;2022-11-14T11:37:24;99831.67;;;11.03;100.00
62948;BME280;51940;52.126;-0.994;2022-11-14T11:39:56;99830.48;;;11.06;100.00
62948;BME280;51940;52.126;-0.994;2022-11-14T11:42:33;99835.81;;;11.07;100.00
62948;BME280;51940;52.126;-0.994;2022-11-14T11:45:04;99831.53;;;11.07;100.00
62948;BME280;51940;52.126;-0.994;2022-11-14T11:47:33;99829.01;;;11.08;100.00
62948;BME280;51940;52.126;-0.994;2022-11-14T11:50:00;99826.30;;;11.08;100.00
62948;BME280;51940;52.126;-0.994;2022-11-14T11:55:16;99817.06;;;11.13;100.00
62948;BME280;51940;52.126;-0.994;2022-11-14T11:57:55;99812.51;;;11.15;100.00
62948;BME280;51940;52.126;-0.994;2022-11-14T12:00:26;99809.26;;;11.16;100.00
62948;BME280;51940;52.126;-0.994;2022-11-14T12:02:52;99804.27;;;11.16;100.00
62948;BME280;51940;52.126;-0.994;2022-11-14T12:08:15;99810.11;;;11.17;100.00
62948;BME280;51940;52.126;-0.994;2022-11-14T12:10:46;99804.90;;;11.17;100.00
62948;BME280;51940;52.126;-0.994;2022-11-14T12:24:48;99786.52;;;11.18;100.00
62948;BME280;51940;52.126;-0.994;2022-11-14T12:30:13;99783.64;;;11.18;100.00
62948;BME280;51940;52.126;-0.994;2022-11-14T12:32:57;99775.94;;;11.19;100.00
62948;BME280;51940;52.126;-0.994;2022-11-14T12:35:31;99779.46;;;11.21;100.00
62948;BME280;51940;52.126;-0.994;2022-11-14T12:37:58;99770.50;;;11.21;100.00
62948;BME280;51940;52.126;-0.994;2022-11-14T12:40:33;99772.62;;;11.22;100.00
62948;BME280;51940;52.126;-0.994;2022-11-14T12:43:01;99768.14;;;11.23;100.00
62948;BME280;51940;52.126;-0.994;2022-11-14T12:50:55;99760.89;;;11.25;100.00
62948;BME280;51940;52.126;-0.994;2022-11-14T13:01:17;99751.18;;;11.27;100.00
62948;BME280;51940;52.126;-0.994;2022-11-14T13:06:18;99755.33;;;11.31;100.00
62948;BME280;51940;52.126;-0.994;2022-11-14T13:14:20;99756.39;;;11.37;100.00
62948;BME280;51940;52.126;-0.994;2022-11-14T13:36:06;99740.79;;;11.43;100.00
62948;BME280;51940;52.126;-0.994;2022-11-14T13:42:04;99722.73;;;11.48;100.00
62948;BME280;51940;52.126;-0.994;2022-11-14T13:44:54;99717.70;;;11.53;100.00
62948;BME280;51940;52.126;-0.994;2022-11-14T13:50:06;99704.88;;;11.61;100.00
62948;BME280;51940;52.126;-0.994;2022-11-14T13:52:45;99702.02;;;11.66;100.00
62948;BME280;51940;52.126;-0.994;2022-11-14T13:55:31;99695.23;;;11.70;100.00
62948;BME280;51940;52.126;-0.994;2022-11-14T14:07:12;99671.02;;;11.87;100.00
62948;BME280;51940;52.126;-0.994;2022-11-14T14:12:57;99654.85;;;11.98;100.00
62948;BME280;51940;52.126;-0.994;2022-11-14T14:15:51;99644.50;;;12.02;100.00
62948;BME280;51940;52.126;-0.994;2022-11-14T14:21:24;99635.05;;;12.01;100.00
62948;BME280;51940;52.126;-0.994;2022-11-14T14:29:43;99617.98;;;11.95;100.00
62948;BME280;51940;52.126;-0.994;2022-11-14T14:32:16;99619.71;;;11.92;100.00
62948;BME280;51940;52.126;-0.994;2022-11-14T14:34:41;99621.81;;;11.89;100.00
62948;BME280;51940;52.126;-0.994;2022-11-14T14:37:27;99615.96;;;11.88;100.00
62948;BME280;51940;52.126;-0.994;2022-11-14T14:40:04;99620.34;;;11.85;100.00
62948;BME280;51940;52.126;-0.994;2022-11-14T14:42:45;99617.91;;;11.83;100.00
62948;BME280;51940;52.126;-0.994;2022-11-14T14:45:16;99612.64;;;11.82;100.00
62948;BME280;51940;52.126;-0.994;2022-11-14T14:47:45;99610.36;;;11.80;100.00
62948;BME280;51940;52.126;-0.994;2022-11-14T14:50:15;99607.89;;;11.80;100.00
62948;BME280;51940;52.126;-0.994;2022-11-14T14:52:45;99599.14;;;11.79;100.00
62948;BME280;51940;52.126;-0.994;2022-11-14T14:57:50;99594.79;;;11.76;100.00
62948;BME280;51940;52.126;-0.994;2022-11-14T15:00:25;99584.33;;;11.74;100.00
62948;BME280;51940;52.126;-0.994;2022-11-14T15:03:00;99592.04;;;11.74;100.00
62948;BME280;51940;52.126;-0.994;2022-11-14T15:05:28;99591.36;;;11.73;100.00